sensor_id;sensor_type;location;lat;lon;timestamp;P1;durP1;ratioP1;P2;durP2;ratioP2
48835;SDS011;62581;47.342;7.908;2023-04-03T00:01:52;2.40;;;2.05;;
48835;SDS011;62581;47.342;7.908;2023-04-03T00:04:20;2.75;;;2.50;;
48835;SDS011;62581;47.342;7.908;2023-04-03T00:06:47;2.63;;;2.40;;
48835;SDS011;62581;47.342;7.908;2023-04-03T00:09:14;2.58;;;2.20;;
48835;SDS011;62581;47.342;7.908;2023-04-03T00:11:42;2.42;;;2.00;;
48835;SDS011;62581;47.342;7.908;2023-04-03T00:14:09;2.40;;;2.20;;
48835;SDS011;62581;47.342;7.908;2023-04-03T00:16:37;2.25;;;2.05;;
48835;SDS011;62581;47.342;7.908;2023-04-03T00:19:04;1.80;;;1.70;;
48835;SDS011;62581;47.342;7.908;2023-04-03T00:21:32;1.92;;;1.83;;
48835;SDS011;62581;47.342;7.908;2023-04-03T00:23:59;2.47;;;2.20;;
48835;SDS011;62581;47.342;7.908;2023-04-03T00:26:26;2.15;;;1.95;;
48835;SDS011;62581;47.342;7.908;2023-04-03T00:28:53;2.20;;;2.00;;
48835;SDS011;62581;47.342;7.908;2023-04-03T00:31:21;2.70;;;2.20;;
48835;SDS011;62581;47.342;7.908;2023-04-03T00:33:49;2.45;;;2.00;;
48835;SDS011;62581;47.342;7.908;2023-04-03T00:36:16;5.05;;;2.28;;
48835;SDS011;62581;47.342;7.908;2023-04-03T00:38:44;2.30;;;2.10;;
48835;SDS011;62581;47.342;7.908;2023-04-03T00:41:11;2.42;;;2.22;;
48835;SDS011;62581;47.342;7.908;2023-04-03T00:43:38;2.90;;;2.65;;
48835;SDS011;62581;47.342;7.908;2023-04-03T00:46:05;2.15;;;1.95;;
48835;SDS011;62581;47.342;7.908;2023-04-03T00:48:33;2.00;;;1.80;;
48835;SDS011;62581;47.342;7.908;2023-04-03T00:51:06;2.38;;;2.17;;
48835;SDS011;62581;47.342;7.908;2023-04-03T00:53:37;2.10;;;1.90;;
48835;SDS011;62581;47.342;7.908;2023-04-03T00:56:08;2.95;;;2.13;;
48835;SDS011;62581;47.342;7.908;2023-04-03T00:58:37;2.03;;;1.88;;
48835;SDS011;62581;47.342;7.908;2023-04-03T01:01:10;2.42;;;2.22;;
48835;SDS011;62581;47.342;7.908;2023-04-03T01:03:40;5.30;;;2.25;;
48835;SDS011;62581;47.342;7.908;2023-04-03T01:06:09;3.65;;;2.38;;
48835;SDS011;62581;47.342;7.908;2023-04-03T01:11:03;2.40;;;2.20;;
48835;SDS011;62581;47.342;7.908;2023-04-03T01:13:31;2.97;;;2.58;;
48835;SDS011;62581;47.342;7.908;2023-04-03T01:16:00;3.35;;;2.90;;
48835;SDS011;62581;47.342;7.908;2023-04-03T01:18:28;3.13;;;2.75;;
48835;SDS011;62581;47.342;7.908;2023-04-03T01:21:03;3.60;;;2.63;;
48835;SDS011;62581;47.342;7.908;2023-04-03T01:26:53;4.35;;;3.50;;
48835;SDS011;62581;47.342;7.908;2023-04-03T01:29:21;3.67;;;3.25;;
48835;SDS011;62581;47.342;7.908;2023-04-03T01:31:51;4.00;;;3.53;;
48835;SDS011;62581;47.342;7.908;2023-04-03T01:34:19;4.28;;;3.58;;
48835;SDS011;62581;47.342;7.908;2023-04-03T01:36:47;3.85;;;3.40;;
48835;SDS011;62581;47.342;7.908;2023-04-03T01:39:14;4.50;;;3.88;;
48835;SDS011;62581;47.342;7.908;2023-04-03T01:41:41;4.15;;;3.75;;
48835;SDS011;62581;47.342;7.908;2023-04-03T01:44:09;5.32;;;3.88;;
48835;SDS011;62581;47.342;7.908;2023-04-03T01:46:36;4.53;;;3.88;;
48835;SDS011;62581;47.342;7.908;2023-04-03T01:49:05;4.70;;;3.95;;
48835;SDS011;62581;47.342;7.908;2023-04-03T01:51:32;5.00;;;4.13;;
48835;SDS011;62581;47.342;7.908;2023-04-03T01:54:00;4.53;;;4.07;;
48835;SDS011;62581;47.342;7.908;2023-04-03T01:56:27;5.95;;;4.70;;
48835;SDS011;62581;47.342;7.908;2023-04-03T01:58:54;6.28;;;4.10;;
48835;SDS011;62581;47.342;7.908;2023-04-03T02:01:22;5.68;;;4.57;;
48835;SDS011;62581;47.342;7.908;2023-04-03T02:06:19;6.20;;;4.47;;
48835;SDS011;62581;47.342;7.908;2023-04-03T02:08:46;6.43;;;5.05;;
48835;SDS011;62581;47.342;7.908;2023-04-03T02:11:13;5.60;;;4.80;;
48835;SDS011;62581;47.342;7.908;2023-04-03T02:13:41;5.28;;;4.18;;
48835;SDS011;62581;47.342;7.908;2023-04-03T02:16:08;6.28;;;4.50;;
48835;SDS011;62581;47.342;7.908;2023-04-03T02:18:37;4.90;;;4.40;;
48835;SDS011;62581;47.342;7.908;2023-04-03T02:21:04;6.45;;;5.00;;
48835;SDS011;62581;47.342;7.908;2023-04-03T02:23:33;4.75;;;4.25;;
48835;SDS011;62581;47.342;7.908;2023-04-03T02:26:03;5.13;;;4.60;;
48835;SDS011;62581;47.342;7.908;2023-04-03T02:28:32;5.13;;;4.53;;
48835;SDS011;62581;47.342;7.908;2023-04-03T02:31:00;6.03;;;4.70;;
48835;SDS011;62581;47.342;7.908;2023-04-03T02:33:27;4.93;;;4.45;;
48835;SDS011;62581;47.342;7.908;2023-04-03T02:35:55;5.50;;;4.75;;
48835;SDS011;62581;47.342;7.908;2023-04-03T02:38:23;6.00;;;4.70;;
48835;SDS011;62581;47.342;7.908;2023-04-03T02:40:52;7.27;;;4.77;;
48835;SDS011;62581;47.342;7.908;2023-04-03T02:43:19;6.45;;;4.70;;
48835;SDS011;62581;47.342;7.908;2023-04-03T02:45:46;7.18;;;5.18;;
48835;SDS011;62581;47.342;7.908;2023-04-03T02:48:14;4.88;;;4.38;;
48835;SDS011;62581;47.342;7.908;2023-04-03T02:50:42;7.10;;;5.03;;
48835;SDS011;62581;47.342;7.908;2023-04-03T02:53:09;5.85;;;4.78;;
48835;SDS011;62581;47.342;7.908;2023-04-03T02:55:36;6.57;;;4.85;;
48835;SDS011;62581;47.342;7.908;2023-04-03T02:58:05;5.53;;;4.50;;
48835;SDS011;62581;47.342;7.908;2023-04-03T03:00:32;5.85;;;5.10;;
48835;SDS011;62581;47.342;7.908;2023-04-03T03:03:00;5.30;;;4.80;;
48835;SDS011;62581;47.342;7.908;2023-04-03T03:05:27;5.60;;;4.75;;
48835;SDS011;62581;47.342;7.908;2023-04-03T03:07:54;6.10;;;4.60;;
48835;SDS011;62581;47.342;7.908;2023-04-03T03:10:22;5.55;;;4.72;;
48835;SDS011;62581;47.342;7.908;2023-04-03T03:12:49;6.88;;;5.43;;
48835;SDS011;62581;47.342;7.908;2023-04-03T03:15:18;6.55;;;5.20;;
48835;SDS011;62581;47.342;7.908;2023-04-03T03:17:45;6.30;;;4.95;;
48835;SDS011;62581;47.342;7.908;2023-04-03T03:20:13;5.80;;;5.20;;
48835;SDS011;62581;47.342;7.908;2023-04-03T03:22:40;5.25;;;4.60;;
48835;SDS011;62581;47.342;7.908;2023-04-03T03:25:08;6.95;;;5.20;;
48835;SDS011;62581;47.342;7.908;2023-04-03T03:27:35;6.68;;;4.97;;
48835;SDS011;62581;47.342;7.908;2023-04-03T03:30:03;6.05;;;5.00;;
48835;SDS011;62581;47.342;7.908;2023-04-03T03:32:33;6.75;;;5.07;;
48835;SDS011;62581;47.342;7.908;2023-04-03T03:35:00;6.72;;;4.97;;
48835;SDS011;62581;47.342;7.908;2023-04-03T03:37:27;6.20;;;5.13;;
48835;SDS011;62581;47.342;7.908;2023-04-03T03:39:54;6.30;;;5.13;;
48835;SDS011;62581;47.342;7.908;2023-04-03T03:42:21;6.90;;;5.05;;
48835;SDS011;62581;47.342;7.908;2023-04-03T03:44:49;5.80;;;5.13;;
48835;SDS011;62581;47.342;7.908;2023-04-03T03:47:16;6.73;;;5.20;;
48835;SDS011;62581;47.342;7.908;2023-04-03T03:49:45;5.65;;;4.82;;
48835;SDS011;62581;47.342;7.908;2023-04-03T03:52:12;5.85;;;4.70;;
48835;SDS011;62581;47.342;7.908;2023-04-03T03:54:39;5.60;;;5.03;;
48835;SDS011;62581;47.342;7.908;2023-04-03T03:57:07;4.95;;;4.30;;
48835;SDS011;62581;47.342;7.908;2023-04-03T03:59:34;5.40;;;4.43;;
48835;SDS011;62581;47.342;7.908;2023-04-03T04:02:01;5.13;;;4.63;;
48835;SDS011;62581;47.342;7.908;2023-04-03T04:04:28;5.00;;;4.50;;
48835;SDS011;62581;47.342;7.908;2023-04-03T04:06:57;4.88;;;4.38;;
48835;SDS011;62581;47.342;7.908;2023-04-03T04:09:25;5.78;;;5.15;;
48835;SDS011;62581;47.342;7.908;2023-04-03T04:11:53;7.93;;;5.35;;
48835;SDS011;62581;47.342;7.908;2023-04-03T04:14:20;7.00;;;5.68;;
48835;SDS011;62581;47.342;7.908;2023-04-03T04:16:47;7.68;;;5.28;;
48835;SDS011;62581;47.342;7.908;2023-04-03T04:19:14;9.57;;;5.30;;
48835;SDS011;62581;47.342;7.908;2023-04-03T04:21:42;5.80;;;4.65;;
48835;SDS011;62581;47.342;7.908;2023-04-03T04:24:10;5.53;;;4.93;;
48835;SDS011;62581;47.342;7.908;2023-04-03T04:29:08;9.50;;;5.90;;
48835;SDS011;62581;47.342;7.908;2023-04-03T04:31:35;6.03;;;5.00;;
48835;SDS011;62581;47.342;7.908;2023-04-03T04:34:02;7.45;;;6.18;;
48835;SDS011;62581;47.342;7.908;2023-04-03T04:36:30;7.97;;;5.90;;
48835;SDS011;62581;47.342;7.908;2023-04-03T04:38:58;9.68;;;6.45;;
48835;SDS011;62581;47.342;7.908;2023-04-03T04:41:26;6.97;;;6.03;;
48835;SDS011;62581;47.342;7.908;2023-04-03T04:43:53;9.75;;;5.90;;
48835;SDS011;62581;47.342;7.908;2023-04-03T04:46:21;8.60;;;6.25;;
48835;SDS011;62581;47.342;7.908;2023-04-03T04:48:48;10.10;;;6.57;;
48835;SDS011;62581;47.342;7.908;2023-04-03T04:51:15;9.80;;;6.80;;
48835;SDS011;62581;47.342;7.908;2023-04-03T04:53:43;9.07;;;7.00;;
48835;SDS011;62581;47.342;7.908;2023-04-03T04:56:10;8.87;;;7.27;;
48835;SDS011;62581;47.342;7.908;2023-04-03T04:58:39;10.27;;;7.30;;
48835;SDS011;62581;47.342;7.908;2023-04-03T05:01:07;9.70;;;7.10;;
48835;SDS011;62581;47.342;7.908;2023-04-03T05:03:36;10.30;;;7.72;;
48835;SDS011;62581;47.342;7.908;2023-04-03T05:06:03;12.32;;;7.70;;
48835;SDS011;62581;47.342;7.908;2023-04-03T05:08:31;9.23;;;8.23;;
48835;SDS011;62581;47.342;7.908;2023-04-03T05:10:58;12.43;;;9.48;;
48835;SDS011;62581;47.342;7.908;2023-04-03T05:13:25;11.15;;;7.72;;
48835;SDS011;62581;47.342;7.908;2023-04-03T05:15:54;13.90;;;8.32;;
48835;SDS011;62581;47.342;7.908;2023-04-03T05:18:21;9.27;;;8.23;;
48835;SDS011;62581;47.342;7.908;2023-04-03T05:20:48;11.57;;;7.90;;
48835;SDS011;62581;47.342;7.908;2023-04-03T05:23:16;12.07;;;8.38;;
48835;SDS011;62581;47.342;7.908;2023-04-03T05:25:44;10.73;;;8.77;;
48835;SDS011;62581;47.342;7.908;2023-04-03T05:28:13;9.60;;;7.60;;
48835;SDS011;62581;47.342;7.908;2023-04-03T05:30:41;13.18;;;8.40;;
48835;SDS011;62581;47.342;7.908;2023-04-03T05:33:09;10.15;;;8.32;;
48835;SDS011;62581;47.342;7.908;2023-04-03T05:35:36;12.05;;;7.90;;
48835;SDS011;62581;47.342;7.908;2023-04-03T05:38:07;11.25;;;7.95;;
48835;SDS011;62581;47.342;7.908;2023-04-03T05:40:34;10.52;;;7.90;;
48835;SDS011;62581;47.342;7.908;2023-04-03T05:43:01;9.23;;;7.28;;
48835;SDS011;62581;47.342;7.908;2023-04-03T05:45:28;8.77;;;7.30;;
48835;SDS011;62581;47.342;7.908;2023-04-03T05:47:56;12.05;;;8.50;;
48835;SDS011;62581;47.342;7.908;2023-04-03T05:50:25;10.30;;;8.02;;
48835;SDS011;62581;47.342;7.908;2023-04-03T05:52:52;10.35;;;7.95;;
48835;SDS011;62581;47.342;7.908;2023-04-03T05:55:23;10.57;;;7.57;;
48835;SDS011;62581;47.342;7.908;2023-04-03T05:57:50;9.73;;;7.43;;
48835;SDS011;62581;47.342;7.908;2023-04-03T06:00:17;9.90;;;7.32;;
48835;SDS011;62581;47.342;7.908;2023-04-03T06:02:46;13.68;;;8.07;;
48835;SDS011;62581;47.342;7.908;2023-04-03T06:05:13;11.10;;;8.07;;
48835;SDS011;62581;47.342;7.908;2023-04-03T06:07:41;10.27;;;7.78;;
48835;SDS011;62581;47.342;7.908;2023-04-03T06:10:10;10.27;;;8.23;;
48835;SDS011;62581;47.342;7.908;2023-04-03T06:12:38;15.10;;;8.13;;
48835;SDS011;62581;47.342;7.908;2023-04-03T06:15:06;10.98;;;8.23;;
48835;SDS011;62581;47.342;7.908;2023-04-03T06:17:35;11.20;;;8.15;;
48835;SDS011;62581;47.342;7.908;2023-04-03T06:20:02;10.60;;;8.50;;
48835;SDS011;62581;47.342;7.908;2023-04-03T06:22:30;10.00;;;7.77;;
48835;SDS011;62581;47.342;7.908;2023-04-03T06:24:59;9.23;;;7.30;;
48835;SDS011;62581;47.342;7.908;2023-04-03T06:27:26;8.50;;;6.35;;
48835;SDS011;62581;47.342;7.908;2023-04-03T06:29:53;9.80;;;7.28;;
48835;SDS011;62581;47.342;7.908;2023-04-03T06:32:21;9.73;;;6.97;;
48835;SDS011;62581;47.342;7.908;2023-04-03T06:34:48;8.90;;;7.30;;
48835;SDS011;62581;47.342;7.908;2023-04-03T06:37:16;9.65;;;6.95;;
48835;SDS011;62581;47.342;7.908;2023-04-03T06:39:45;8.55;;;6.57;;
48835;SDS011;62581;47.342;7.908;2023-04-03T06:42:14;7.88;;;6.32;;
48835;SDS011;62581;47.342;7.908;2023-04-03T06:44:41;8.32;;;6.75;;
48835;SDS011;62581;47.342;7.908;2023-04-03T06:47:09;11.48;;;6.93;;
48835;SDS011;62581;47.342;7.908;2023-04-03T06:49:38;7.88;;;6.35;;
48835;SDS011;62581;47.342;7.908;2023-04-03T06:52:05;7.13;;;5.78;;
48835;SDS011;62581;47.342;7.908;2023-04-03T06:54:32;8.23;;;5.53;;
48835;SDS011;62581;47.342;7.908;2023-04-03T06:57:01;8.52;;;6.55;;
48835;SDS011;62581;47.342;7.908;2023-04-03T06:59:31;7.05;;;5.25;;
48835;SDS011;62581;47.342;7.908;2023-04-03T07:04:25;6.75;;;5.80;;
48835;SDS011;62581;47.342;7.908;2023-04-03T07:06:52;8.70;;;5.03;;
48835;SDS011;62581;47.342;7.908;2023-04-03T07:09:19;4.93;;;4.53;;
48835;SDS011;62581;47.342;7.908;2023-04-03T07:11:46;6.07;;;4.68;;
48835;SDS011;62581;47.342;7.908;2023-04-03T07:14:13;7.50;;;5.10;;
48835;SDS011;62581;47.342;7.908;2023-04-03T07:16:42;6.45;;;4.45;;
48835;SDS011;62581;47.342;7.908;2023-04-03T07:19:09;5.63;;;4.93;;
48835;SDS011;62581;47.342;7.908;2023-04-03T07:21:36;5.97;;;4.50;;
48835;SDS011;62581;47.342;7.908;2023-04-03T07:24:04;6.30;;;4.35;;
48835;SDS011;62581;47.342;7.908;2023-04-03T07:26:31;5.78;;;4.90;;
48835;SDS011;62581;47.342;7.908;2023-04-03T07:28:58;7.05;;;3.88;;
48835;SDS011;62581;47.342;7.908;2023-04-03T07:31:26;5.78;;;4.72;;
48835;SDS011;62581;47.342;7.908;2023-04-03T07:33:55;8.40;;;4.45;;
48835;SDS011;62581;47.342;7.908;2023-04-03T07:36:22;4.50;;;3.90;;
48835;SDS011;62581;47.342;7.908;2023-04-03T07:38:50;6.85;;;4.38;;
48835;SDS011;62581;47.342;7.908;2023-04-03T07:41:18;4.72;;;4.20;;
48835;SDS011;62581;47.342;7.908;2023-04-03T07:43:47;5.47;;;4.05;;
48835;SDS011;62581;47.342;7.908;2023-04-03T07:46:16;4.47;;;3.85;;
48835;SDS011;62581;47.342;7.908;2023-04-03T07:48:43;4.82;;;4.05;;
48835;SDS011;62581;47.342;7.908;2023-04-03T07:51:12;5.68;;;4.18;;
48835;SDS011;62581;47.342;7.908;2023-04-03T07:53:40;4.25;;;3.85;;
48835;SDS011;62581;47.342;7.908;2023-04-03T07:56:07;5.28;;;4.30;;
48835;SDS011;62581;47.342;7.908;2023-04-03T07:58:35;5.35;;;4.32;;
48835;SDS011;62581;47.342;7.908;2023-04-03T08:01:03;4.55;;;4.10;;
48835;SDS011;62581;47.342;7.908;2023-04-03T08:03:31;4.67;;;4.13;;
48835;SDS011;62581;47.342;7.908;2023-04-03T08:06:01;5.85;;;4.63;;
48835;SDS011;62581;47.342;7.908;2023-04-03T08:08:31;6.78;;;4.07;;
48835;SDS011;62581;47.342;7.908;2023-04-03T08:10:59;4.70;;;3.85;;
48835;SDS011;62581;47.342;7.908;2023-04-03T08:13:28;6.28;;;3.65;;
48835;SDS011;62581;47.342;7.908;2023-04-03T08:15:55;6.45;;;4.05;;
48835;SDS011;62581;47.342;7.908;2023-04-03T08:18:24;6.03;;;4.05;;
48835;SDS011;62581;47.342;7.908;2023-04-03T08:20:51;6.25;;;4.57;;
48835;SDS011;62581;47.342;7.908;2023-04-03T08:23:19;5.88;;;4.00;;
48835;SDS011;62581;47.342;7.908;2023-04-03T08:25:48;4.95;;;3.80;;
48835;SDS011;62581;47.342;7.908;2023-04-03T08:28:16;3.92;;;3.30;;
48835;SDS011;62581;47.342;7.908;2023-04-03T08:30:44;5.35;;;3.78;;
48835;SDS011;62581;47.342;7.908;2023-04-03T08:33:11;4.43;;;3.78;;
48835;SDS011;62581;47.342;7.908;2023-04-03T08:35:39;5.57;;;3.80;;
48835;SDS011;62581;47.342;7.908;2023-04-03T08:38:06;4.47;;;3.50;;
48835;SDS011;62581;47.342;7.908;2023-04-03T08:40:34;4.03;;;3.58;;
48835;SDS011;62581;47.342;7.908;2023-04-03T08:43:06;7.25;;;4.35;;
48835;SDS011;62581;47.342;7.908;2023-04-03T08:45:48;4.03;;;3.63;;
48835;SDS011;62581;47.342;7.908;2023-04-03T08:48:19;5.53;;;3.65;;
48835;SDS011;62581;47.342;7.908;2023-04-03T08:50:49;4.45;;;3.72;;
48835;SDS011;62581;47.342;7.908;2023-04-03T08:53:20;6.22;;;4.53;;
48835;SDS011;62581;47.342;7.908;2023-04-03T08:55:50;4.95;;;4.00;;
48835;SDS011;62581;47.342;7.908;2023-04-03T08:58:21;3.80;;;3.33;;
48835;SDS011;62581;47.342;7.908;2023-04-03T09:00:50;4.22;;;3.58;;
48835;SDS011;62581;47.342;7.908;2023-04-03T09:03:20;3.67;;;3.20;;
48835;SDS011;62581;47.342;7.908;2023-04-03T09:08:21;3.50;;;3.20;;
48835;SDS011;62581;47.342;7.908;2023-04-03T09:10:52;5.07;;;2.95;;
48835;SDS011;62581;47.342;7.908;2023-04-03T09:13:34;3.33;;;3.03;;
48835;SDS011;62581;47.342;7.908;2023-04-03T09:16:12;4.43;;;2.95;;
48835;SDS011;62581;47.342;7.908;2023-04-03T09:18:48;3.08;;;2.78;;
48835;SDS011;62581;47.342;7.908;2023-04-03T09:21:24;3.80;;;2.58;;
48835;SDS011;62581;47.342;7.908;2023-04-03T09:23:59;3.45;;;2.72;;
48835;SDS011;62581;47.342;7.908;2023-04-03T09:26:28;3.47;;;3.17;;
48835;SDS011;62581;47.342;7.908;2023-04-03T09:29:04;3.17;;;2.80;;
48835;SDS011;62581;47.342;7.908;2023-04-03T09:31:36;3.20;;;2.80;;
48835;SDS011;62581;47.342;7.908;2023-04-03T09:34:05;3.08;;;2.50;;
48835;SDS011;62581;47.342;7.908;2023-04-03T09:36:42;3.22;;;2.88;;
48835;SDS011;62581;47.342;7.908;2023-04-03T09:39:11;3.40;;;2.90;;
48835;SDS011;62581;47.342;7.908;2023-04-03T09:41:40;3.70;;;2.65;;
48835;SDS011;62581;47.342;7.908;2023-04-03T09:44:22;3.50;;;2.97;;
48835;SDS011;62581;47.342;7.908;2023-04-03T09:46:50;5.68;;;3.72;;
48835;SDS011;62581;47.342;7.908;2023-04-03T09:49:18;4.57;;;3.33;;
48835;SDS011;62581;47.342;7.908;2023-04-03T09:51:46;3.47;;;3.00;;
48835;SDS011;62581;47.342;7.908;2023-04-03T09:54:24;3.72;;;3.20;;
48835;SDS011;62581;47.342;7.908;2023-04-03T09:57:07;4.47;;;3.33;;
48835;SDS011;62581;47.342;7.908;2023-04-03T09:59:40;4.55;;;2.92;;
48835;SDS011;62581;47.342;7.908;2023-04-03T10:02:21;3.95;;;3.17;;
48835;SDS011;62581;47.342;7.908;2023-04-03T10:04:56;4.82;;;3.42;;
48835;SDS011;62581;47.342;7.908;2023-04-03T10:07:28;3.67;;;3.15;;
48835;SDS011;62581;47.342;7.908;2023-04-03T10:09:58;4.43;;;3.00;;
48835;SDS011;62581;47.342;7.908;2023-04-03T10:12:26;3.40;;;2.88;;
48835;SDS011;62581;47.342;7.908;2023-04-03T10:14:56;3.22;;;2.92;;
48835;SDS011;62581;47.342;7.908;2023-04-03T10:17:26;5.00;;;2.88;;
48835;SDS011;62581;47.342;7.908;2023-04-03T10:20:04;3.53;;;2.88;;
48835;SDS011;62581;47.342;7.908;2023-04-03T10:22:37;3.10;;;2.80;;
48835;SDS011;62581;47.342;7.908;2023-04-03T10:25:12;2.85;;;2.65;;
48835;SDS011;62581;47.342;7.908;2023-04-03T10:27:49;3.67;;;2.47;;
48835;SDS011;62581;47.342;7.908;2023-04-03T10:30:30;3.88;;;2.70;;
48835;SDS011;62581;47.342;7.908;2023-04-03T10:36:11;2.65;;;2.45;;
48835;SDS011;62581;47.342;7.908;2023-04-03T10:38:48;3.25;;;2.38;;
48835;SDS011;62581;47.342;7.908;2023-04-03T10:41:24;2.97;;;2.67;;
48835;SDS011;62581;47.342;7.908;2023-04-03T10:44:03;3.65;;;3.05;;
48835;SDS011;62581;47.342;7.908;2023-04-03T10:46:41;3.72;;;3.00;;
48835;SDS011;62581;47.342;7.908;2023-04-03T10:49:15;4.30;;;2.70;;
48835;SDS011;62581;47.342;7.908;2023-04-03T10:51:58;2.72;;;2.53;;
48835;SDS011;62581;47.342;7.908;2023-04-03T10:54:32;3.05;;;2.75;;
48835;SDS011;62581;47.342;7.908;2023-04-03T10:57:05;3.13;;;2.63;;
48835;SDS011;62581;47.342;7.908;2023-04-03T10:59:35;3.10;;;2.78;;
48835;SDS011;62581;47.342;7.908;2023-04-03T11:02:11;2.92;;;2.63;;
48835;SDS011;62581;47.342;7.908;2023-04-03T11:04:44;2.78;;;2.50;;
48835;SDS011;62581;47.342;7.908;2023-04-03T11:07:15;5.80;;;2.65;;
48835;SDS011;62581;47.342;7.908;2023-04-03T11:09:46;3.78;;;2.67;;
48835;SDS011;62581;47.342;7.908;2023-04-03T11:12:18;3.63;;;2.70;;
48835;SDS011;62581;47.342;7.908;2023-04-03T11:14:51;3.60;;;2.72;;
48835;SDS011;62581;47.342;7.908;2023-04-03T11:17:23;3.25;;;2.75;;
48835;SDS011;62581;47.342;7.908;2023-04-03T11:19:59;2.60;;;2.40;;
48835;SDS011;62581;47.342;7.908;2023-04-03T11:22:32;3.05;;;2.70;;
48835;SDS011;62581;47.342;7.908;2023-04-03T11:25:03;4.05;;;2.45;;
48835;SDS011;62581;47.342;7.908;2023-04-03T11:27:45;6.07;;;2.75;;
48835;SDS011;62581;47.342;7.908;2023-04-03T11:30:17;2.92;;;2.60;;
48835;SDS011;62581;47.342;7.908;2023-04-03T11:33:08;2.63;;;2.20;;
48835;SDS011;62581;47.342;7.908;2023-04-03T11:35:47;3.47;;;2.47;;
48835;SDS011;62581;47.342;7.908;2023-04-03T11:38:18;3.13;;;2.40;;
48835;SDS011;62581;47.342;7.908;2023-04-03T11:40:49;3.35;;;2.70;;
48835;SDS011;62581;47.342;7.908;2023-04-03T11:43:20;3.55;;;2.28;;
48835;SDS011;62581;47.342;7.908;2023-04-03T11:45:52;3.38;;;2.40;;
48835;SDS011;62581;47.342;7.908;2023-04-03T11:48:45;3.28;;;2.63;;
48835;SDS011;62581;47.342;7.908;2023-04-03T12:12:57;2.85;;;2.33;;
48835;SDS011;62581;47.342;7.908;2023-04-03T12:15:26;3.30;;;2.65;;
48835;SDS011;62581;47.342;7.908;2023-04-03T12:21:13;4.53;;;2.13;;
48835;SDS011;62581;47.342;7.908;2023-04-03T12:23:58;2.78;;;2.22;;
48835;SDS011;62581;47.342;7.908;2023-04-03T12:26:29;6.68;;;2.70;;
48835;SDS011;62581;47.342;7.908;2023-04-03T12:29:01;3.63;;;2.70;;
48835;SDS011;62581;47.342;7.908;2023-04-03T12:31:38;5.38;;;2.75;;
48835;SDS011;62581;47.342;7.908;2023-04-03T12:34:18;4.90;;;2.83;;
48835;SDS011;62581;47.342;7.908;2023-04-03T12:36:56;4.95;;;2.95;;
48835;SDS011;62581;47.342;7.908;2023-04-03T12:42:39;3.42;;;2.80;;
48835;SDS011;62581;47.342;7.908;2023-04-03T12:45:43;3.60;;;2.53;;
48835;SDS011;62581;47.342;7.908;2023-04-03T12:48:14;3.20;;;2.40;;
48835;SDS011;62581;47.342;7.908;2023-04-03T12:50:44;2.55;;;2.30;;
48835;SDS011;62581;47.342;7.908;2023-04-03T12:53:13;4.28;;;2.30;;
48835;SDS011;62581;47.342;7.908;2023-04-03T12:55:45;3.67;;;2.38;;
48835;SDS011;62581;47.342;7.908;2023-04-03T12:58:13;2.65;;;2.40;;
48835;SDS011;62581;47.342;7.908;2023-04-03T13:00:42;3.42;;;2.35;;
48835;SDS011;62581;47.342;7.908;2023-04-03T13:03:19;2.75;;;2.20;;
48835;SDS011;62581;47.342;7.908;2023-04-03T13:05:52;2.85;;;2.05;;
48835;SDS011;62581;47.342;7.908;2023-04-03T13:08:22;4.47;;;2.20;;
48835;SDS011;62581;47.342;7.908;2023-04-03T13:10:53;4.40;;;2.33;;
48835;SDS011;62581;47.342;7.908;2023-04-03T13:13:23;3.33;;;2.47;;
48835;SDS011;62581;47.342;7.908;2023-04-03T13:15:51;2.47;;;2.28;;
48835;SDS011;62581;47.342;7.908;2023-04-03T13:18:23;6.32;;;2.83;;
48835;SDS011;62581;47.342;7.908;2023-04-03T13:20:52;4.55;;;3.20;;
48835;SDS011;62581;47.342;7.908;2023-04-03T13:23:26;3.53;;;2.75;;
48835;SDS011;62581;47.342;7.908;2023-04-03T13:25:58;2.63;;;2.30;;
48835;SDS011;62581;47.342;7.908;2023-04-03T13:28:29;6.32;;;2.97;;
48835;SDS011;62581;47.342;7.908;2023-04-03T13:31:02;3.58;;;2.10;;
48835;SDS011;62581;47.342;7.908;2023-04-03T13:33:35;2.58;;;2.20;;
48835;SDS011;62581;47.342;7.908;2023-04-03T13:38:32;3.25;;;2.55;;
48835;SDS011;62581;47.342;7.908;2023-04-03T13:41:03;4.03;;;2.47;;
48835;SDS011;62581;47.342;7.908;2023-04-03T13:43:33;5.20;;;2.45;;
48835;SDS011;62581;47.342;7.908;2023-04-03T13:46:04;2.45;;;2.13;;
48835;SDS011;62581;47.342;7.908;2023-04-03T13:48:48;3.22;;;2.38;;
48835;SDS011;62581;47.342;7.908;2023-04-03T13:51:18;3.92;;;2.50;;
48835;SDS011;62581;47.342;7.908;2023-04-03T13:53:49;2.50;;;2.25;;
48835;SDS011;62581;47.342;7.908;2023-04-03T13:56:21;5.68;;;2.80;;
48835;SDS011;62581;47.342;7.908;2023-04-03T13:58:54;2.28;;;2.08;;
48835;SDS011;62581;47.342;7.908;2023-04-03T14:01:24;2.72;;;2.42;;
48835;SDS011;62581;47.342;7.908;2023-04-03T14:06:21;3.65;;;2.42;;
48835;SDS011;62581;47.342;7.908;2023-04-03T14:08:48;5.03;;;2.45;;
48835;SDS011;62581;47.342;7.908;2023-04-03T14:11:16;3.83;;;2.97;;
48835;SDS011;62581;47.342;7.908;2023-04-03T14:13:47;12.05;;;6.90;;
48835;SDS011;62581;47.342;7.908;2023-04-03T14:16:16;4.32;;;3.45;;
48835;SDS011;62581;47.342;7.908;2023-04-03T14:18:44;6.25;;;2.70;;
48835;SDS011;62581;47.342;7.908;2023-04-03T14:21:13;2.87;;;2.50;;
48835;SDS011;62581;47.342;7.908;2023-04-03T14:23:43;4.07;;;2.60;;
48835;SDS011;62581;47.342;7.908;2023-04-03T14:26:12;4.55;;;2.92;;
48835;SDS011;62581;47.342;7.908;2023-04-03T14:28:43;3.83;;;2.63;;
48835;SDS011;62581;47.342;7.908;2023-04-03T14:33:41;3.10;;;2.72;;
48835;SDS011;62581;47.342;7.908;2023-04-03T14:36:11;5.00;;;2.90;;
48835;SDS011;62581;47.342;7.908;2023-04-03T14:38:40;3.72;;;2.72;;
48835;SDS011;62581;47.342;7.908;2023-04-03T14:41:09;5.18;;;3.28;;
48835;SDS011;62581;47.342;7.908;2023-04-03T14:43:38;5.88;;;2.70;;
48835;SDS011;62581;47.342;7.908;2023-04-03T14:46:08;3.50;;;2.95;;
48835;SDS011;62581;47.342;7.908;2023-04-03T14:48:41;3.70;;;3.22;;
48835;SDS011;62581;47.342;7.908;2023-04-03T14:51:09;4.20;;;2.80;;
48835;SDS011;62581;47.342;7.908;2023-04-03T14:53:38;4.97;;;3.05;;
48835;SDS011;62581;47.342;7.908;2023-04-03T14:56:11;6.47;;;3.40;;
48835;SDS011;62581;47.342;7.908;2023-04-03T14:58:39;6.28;;;3.00;;
48835;SDS011;62581;47.342;7.908;2023-04-03T15:01:06;3.63;;;3.25;;
48835;SDS011;62581;47.342;7.908;2023-04-03T15:03:37;7.82;;;4.55;;
48835;SDS011;62581;47.342;7.908;2023-04-03T15:06:04;6.35;;;4.43;;
48835;SDS011;62581;47.342;7.908;2023-04-03T15:08:32;6.53;;;3.35;;
48835;SDS011;62581;47.342;7.908;2023-04-03T15:10:59;3.42;;;3.08;;
48835;SDS011;62581;47.342;7.908;2023-04-03T15:13:26;3.92;;;2.92;;
48835;SDS011;62581;47.342;7.908;2023-04-03T15:15:53;3.63;;;2.60;;
48835;SDS011;62581;47.342;7.908;2023-04-03T15:18:21;4.13;;;2.70;;
48835;SDS011;62581;47.342;7.908;2023-04-03T15:20:53;4.80;;;2.83;;
48835;SDS011;62581;47.342;7.908;2023-04-03T15:23:21;5.50;;;3.00;;
48835;SDS011;62581;47.342;7.908;2023-04-03T15:25:51;3.05;;;2.55;;
48835;SDS011;62581;47.342;7.908;2023-04-03T15:28:22;6.60;;;2.92;;
48835;SDS011;62581;47.342;7.908;2023-04-03T15:30:53;3.15;;;2.85;;
48835;SDS011;62581;47.342;7.908;2023-04-03T15:33:20;3.92;;;2.88;;
48835;SDS011;62581;47.342;7.908;2023-04-03T15:35:48;4.13;;;2.88;;
48835;SDS011;62581;47.342;7.908;2023-04-03T15:38:17;7.00;;;3.50;;
48835;SDS011;62581;47.342;7.908;2023-04-03T15:43:12;4.33;;;2.93;;
48835;SDS011;62581;47.342;7.908;2023-04-03T15:45:40;3.45;;;2.60;;
48835;SDS011;62581;47.342;7.908;2023-04-03T15:48:09;4.38;;;3.17;;
48835;SDS011;62581;47.342;7.908;2023-04-03T15:50:37;3.97;;;2.72;;
48835;SDS011;62581;47.342;7.908;2023-04-03T15:53:05;6.72;;;3.38;;
48835;SDS011;62581;47.342;7.908;2023-04-03T15:55:34;6.00;;;3.15;;
48835;SDS011;62581;47.342;7.908;2023-04-03T15:58:03;4.55;;;2.85;;